sensor_id;sensor_type;location;lat;lon;timestamp;pressure;altitude;pressure_sealevel;temperature;humidity
49813;BME280;35706;52.100;5.056;2023-01-26T00:00:29;102605.72;;;-0.39;100.00
49813;BME280;35706;52.100;5.056;2023-01-26T00:01:30;102597.91;;;-0.36;100.00
49813;BME280;35706;52.100;5.056;2023-01-26T00:02:31;102603.13;;;-0.41;100.00
49813;BME280;35706;52.100;5.056;2023-01-26T00:03:31;102604.88;;;-0.40;100.00
49813;BME280;35706;52.100;5.056;2023-01-26T00:04:31;102607.53;;;-0.48;100.00
49813;BME280;35706;52.100;5.056;2023-01-26T00:05:31;102610.19;;;-0.51;100.00
49813;BME280;35706;52.100;5.056;2023-01-26T00:06:32;102608.53;;;-0.55;100.00
49813;BME280;35706;52.100;5.056;2023-01-26T00:07:32;102603.34;;;-0.55;100.00
49813;BME280;35706;52.100;5.056;2023-01-26T00:08:41;102609.38;;;-0.57;100.00
49813;BME280;35706;52.100;5.056;2023-01-26T00:09:41;102602.38;;;-0.49;100.00
49813;BME280;35706;52.100;5.056;2023-01-26T00:10:42;102604.03;;;-0.44;100.00
49813;BME280;35706;52.100;5.056;2023-01-26T00:11:49;102603.97;;;-0.41;100.00
49813;BME280;35706;52.100;5.056;2023-01-26T00:12:49;102603.00;;;-0.32;100.00
49813;BME280;35706;52.100;5.056;2023-01-26T00:13:50;102609.97;;;-0.35;100.00
49813;BME280;35706;52.100;5.056;2023-01-26T00:14:50;102609.81;;;-0.28;100.00
49813;BME280;35706;52.100;5.056;2023-01-26T00:15:50;102606.38;;;-0.27;100.00
49813;BME280;35706;52.100;5.056;2023-01-26T00:16:50;102607.41;;;-0.38;100.00
49813;BME280;35706;52.100;5.056;2023-01-26T00:17:52;102610.56;;;-0.19;100.00
49813;BME280;35706;52.100;5.056;2023-01-26T00:18:53;102617.78;;;-0.42;100.00
49813;BME280;35706;52.100;5.056;2023-01-26T00:19:57;102614.38;;;-0.45;100.00
49813;BME280;35706;52.100;5.056;2023-01-26T00:20:59;102603.88;;;-0.31;100.00
49813;BME280;35706;52.100;5.056;2023-01-26T00:21:59;102602.22;;;-0.35;100.00
49813;BME280;35706;52.100;5.056;2023-01-26T00:23:00;102605.03;;;-0.52;100.00
49813;BME280;35706;52.100;5.056;2023-01-26T00:24:03;102593.69;;;-0.42;100.00
49813;BME280;35706;52.100;5.056;2023-01-26T00:25:03;102608.03;;;-0.21;100.00
49813;BME280;35706;52.100;5.056;2023-01-26T00:26:09;102599.34;;;-0.17;100.00
49813;BME280;35706;52.100;5.056;2023-01-26T00:27:10;102596.97;;;-0.32;100.00
49813;BME280;35706;52.100;5.056;2023-01-26T00:28:10;102593.63;;;-0.39;100.00
49813;BME280;35706;52.100;5.056;2023-01-26T00:29:10;102591.88;;;-0.37;100.00
49813;BME280;35706;52.100;5.056;2023-01-26T00:30:11;102598.06;;;-0.47;100.00
49813;BME280;35706;52.100;5.056;2023-01-26T00:31:23;102590.44;;;-0.56;100.00
49813;BME280;35706;52.100;5.056;2023-01-26T00:32:23;102594.72;;;-0.55;100.00
49813;BME280;35706;52.100;5.056;2023-01-26T00:33:27;102597.91;;;-0.36;100.00
49813;BME280;35706;52.100;5.056;2023-01-26T00:34:28;102581.59;;;-0.40;100.00
49813;BME280;35706;52.100;5.056;2023-01-26T00:35:28;102591.13;;;-0.44;100.00
49813;BME280;35706;52.100;5.056;2023-01-26T00:36:28;102599.72;;;-0.42;100.00
49813;BME280;35706;52.100;5.056;2023-01-26T00:37:29;102597.22;;;-0.49;100.00
49813;BME280;35706;52.100;5.056;2023-01-26T00:38:29;102593.88;;;-0.56;100.00
49813;BME280;35706;52.100;5.056;2023-01-26T00:39:29;102593.88;;;-0.54;100.00
49813;BME280;35706;52.100;5.056;2023-01-26T00:40:30;102590.31;;;-0.47;100.00
49813;BME280;35706;52.100;5.056;2023-01-26T00:41:30;102591.97;;;-0.42;100.00
49813;BME280;35706;52.100;5.056;2023-01-26T00:42:49;102595.38;;;-0.39;100.00
49813;BME280;35706;52.100;5.056;2023-01-26T00:43:49;102588.63;;;-0.51;100.00
49813;BME280;35706;52.100;5.056;2023-01-26T00:44:49;102579.13;;;-0.46;100.00
49813;BME280;35706;52.100;5.056;2023-01-26T00:45:50;102586.88;;;-0.49;100.00
49813;BME280;35706;52.100;5.056;2023-01-26T00:46:50;102577.53;;;-0.56;100.00
49813;BME280;35706;52.100;5.056;2023-01-26T00:47:51;102584.34;;;-0.51;100.00
49813;BME280;35706;52.100;5.056;2023-01-26T00:48:51;102582.63;;;-0.53;100.00
49813;BME280;35706;52.100;5.056;2023-01-26T00:49:51;102578.34;;;-0.53;100.00
49813;BME280;35706;52.100;5.056;2023-01-26T00:50:52;102577.53;;;-0.55;100.00
49813;BME280;35706;52.100;5.056;2023-01-26T00:51:52;102569.66;;;-0.49;100.00
49813;BME280;35706;52.100;5.056;2023-01-26T00:52:52;102571.44;;;-0.51;100.00
49813;BME280;35706;52.100;5.056;2023-01-26T00:53:53;102566.13;;;-0.42;100.00
49813;BME280;35706;52.100;5.056;2023-01-26T00:54:53;102565.31;;;-0.47;100.00
49813;BME280;35706;52.100;5.056;2023-01-26T00:55:53;102560.06;;;-0.39;100.00
49813;BME280;35706;52.100;5.056;2023-01-26T00:56:57;102559.22;;;-0.41;100.00
49813;BME280;35706;52.100;5.056;2023-01-26T00:57:58;102562.84;;;-0.53;100.00
49813;BME280;35706;52.100;5.056;2023-01-26T00:58:58;102555.09;;;-0.53;100.00
49813;BME280;35706;52.100;5.056;2023-01-26T00:59:59;102558.38;;;-0.43;100.00
49813;BME280;35706;52.100;5.056;2023-01-26T01:00:59;102554.97;;;-0.44;100.00
49813;BME280;35706;52.100;5.056;2023-01-26T01:01:59;102557.56;;;-0.47;100.00
49813;BME280;35706;52.100;5.056;2023-01-26T01:03:04;102553.22;;;-0.42;100.00
49813;BME280;35706;52.100;5.056;2023-01-26T01:04:05;102555.78;;;-0.42;100.00
49813;BME280;35706;52.100;5.056;2023-01-26T01:05:05;102558.47;;;-0.48;100.00
49813;BME280;35706;52.100;5.056;2023-01-26T01:06:05;102568.88;;;-0.54;100.00
49813;BME280;35706;52.100;5.056;2023-01-26T01:07:06;102560.22;;;-0.50;100.00
49813;BME280;35706;52.100;5.056;2023-01-26T01:08:06;102555.94;;;-0.51;100.00
49813;BME280;35706;52.100;5.056;2023-01-26T01:09:07;102553.28;;;-0.48;100.00
49813;BME280;35706;52.100;5.056;2023-01-26T01:10:08;102554.97;;;-0.44;100.00
49813;BME280;35706;52.100;5.056;2023-01-26T01:11:10;102556.63;;;-0.41;100.00
49813;BME280;35706;52.100;5.056;2023-01-26T01:12:10;102553.38;;;-0.54;100.00
49813;BME280;35706;52.100;5.056;2023-01-26T01:13:10;102553.28;;;-0.48;100.00
49813;BME280;35706;52.100;5.056;2023-01-26T01:14:12;102550.66;;;-0.45;100.00
49813;BME280;35706;52.100;5.056;2023-01-26T01:15:13;102555.56;;;-0.28;100.00
49813;BME280;35706;52.100;5.056;2023-01-26T01:16:14;102553.16;;;-0.38;100.00
49813;BME280;35706;52.100;5.056;2023-01-26T01:17:15;102551.44;;;-0.38;100.00
49813;BME280;35706;52.100;5.056;2023-01-26T01:18:15;102552.38;;;-0.44;100.00
49813;BME280;35706;52.100;5.056;2023-01-26T01:19:17;102549.81;;;-0.47;100.00
49813;BME280;35706;52.100;5.056;2023-01-26T01:20:17;102557.47;;;-0.39;100.00
49813;BME280;35706;52.100;5.056;2023-01-26T01:21:18;102554.81;;;-0.34;100.00
49813;BME280;35706;52.100;5.056;2023-01-26T01:22:18;102552.22;;;-0.33;100.00
49813;BME280;35706;52.100;5.056;2023-01-26T01:23:18;102554.78;;;-0.31;100.00
49813;BME280;35706;52.100;5.056;2023-01-26T01:24:19;102549.59;;;-0.31;100.00
49813;BME280;35706;52.100;5.056;2023-01-26T01:25:19;102553.06;;;-0.32;100.00
49813;BME280;35706;52.100;5.056;2023-01-26T01:26:19;102559.94;;;-0.31;100.00
49813;BME280;35706;52.100;5.056;2023-01-26T01:27:20;102553.03;;;-0.29;100.00
49813;BME280;35706;52.100;5.056;2023-01-26T01:28:20;102548.06;;;-0.45;100.00
49813;BME280;35706;52.100;5.056;2023-01-26T01:29:20;102554.13;;;-0.46;100.00
49813;BME280;35706;52.100;5.056;2023-01-26T01:30:20;102548.13;;;-0.48;100.00
49813;BME280;35706;52.100;5.056;2023-01-26T01:31:21;102553.34;;;-0.51;100.00
49813;BME280;35706;52.100;5.056;2023-01-26T01:32:21;102552.22;;;-0.33;100.00
49813;BME280;35706;52.100;5.056;2023-01-26T01:33:22;102555.69;;;-0.34;100.00
49813;BME280;35706;52.100;5.056;2023-01-26T01:34:23;102548.84;;;-0.38;100.00
49813;BME280;35706;52.100;5.056;2023-01-26T01:35:23;102549.78;;;-0.44;100.00
49813;BME280;35706;52.100;5.056;2023-01-26T01:36:24;102549.03;;;-0.50;100.00
49813;BME280;35706;52.100;5.056;2023-01-26T01:37:24;102554.91;;;-0.41;100.00
49813;BME280;35706;52.100;5.056;2023-01-26T01:38:25;102549.00;;;-0.49;100.00
49813;BME280;35706;52.100;5.056;2023-01-26T01:39:26;102543.13;;;-0.57;100.00
49813;BME280;35706;52.100;5.056;2023-01-26T01:40:26;102554.28;;;-0.55;100.00
49813;BME280;35706;52.100;5.056;2023-01-26T01:41:27;102551.66;;;-0.53;100.00
49813;BME280;35706;52.100;5.056;2023-01-26T01:42:27;102548.28;;;-0.58;100.00
49813;BME280;35706;52.100;5.056;2023-01-26T01:43:27;102555.78;;;-0.42;100.00
49813;BME280;35706;52.100;5.056;2023-01-26T01:44:28;102544.53;;;-0.37;100.00
49813;BME280;35706;52.100;5.056;2023-01-26T01:46:37;102546.03;;;-0.24;100.00
49813;BME280;35706;52.100;5.056;2023-01-26T01:47:39;102549.69;;;-0.37;100.00
49813;BME280;35706;52.100;5.056;2023-01-26T01:48:57;102548.59;;;-0.21;100.00
49813;BME280;35706;52.100;5.056;2023-01-26T01:49:59;102550.56;;;-0.38;100.00
49813;BME280;35706;52.100;5.056;2023-01-26T01:51:07;102544.56;;;-0.41;100.00
49813;BME280;35706;52.100;5.056;2023-01-26T01:52:19;102544.38;;;-0.30;100.00
49813;BME280;35706;52.100;5.056;2023-01-26T01:53:25;102544.28;;;-0.22;100.00
49813;BME280;35706;52.100;5.056;2023-01-26T01:54:31;102542.53;;;-0.22;100.00
49813;BME280;35706;52.100;5.056;2023-01-26T01:55:33;102546.97;;;-0.30;100.00
49813;BME280;35706;52.100;5.056;2023-01-26T01:56:34;102544.56;;;-0.41;100.00
49813;BME280;35706;52.100;5.056;2023-01-26T01:57:40;102547.88;;;-0.32;100.00
49813;BME280;35706;52.100;5.056;2023-01-26T01:58:48;102539.41;;;-0.41;100.00
49813;BME280;35706;52.100;5.056;2023-01-26T01:59:56;102545.22;;;-0.26;100.00
49813;BME280;35706;52.100;5.056;2023-01-26T02:00:58;102542.13;;;-0.48;100.00
49813;BME280;35706;52.100;5.056;2023-01-26T02:01:59;102542.13;;;-0.48;100.00
49813;BME280;35706;52.100;5.056;2023-01-26T02:03:07;102539.38;;;-0.39;100.00
49813;BME280;35706;52.100;5.056;2023-01-26T02:04:13;102538.31;;;-0.26;100.00
49813;BME280;35706;52.100;5.056;2023-01-26T02:05:31;102542.72;;;-0.32;100.00
49813;BME280;35706;52.100;5.056;2023-01-26T02:06:41;102539.09;;;-0.21;100.00
49813;BME280;35706;52.100;5.056;2023-01-26T02:07:43;102543.63;;;-0.35;100.00
49813;BME280;35706;52.100;5.056;2023-01-26T02:08:46;102542.94;;;-0.46;100.00
49813;BME280;35706;52.100;5.056;2023-01-26T02:09:48;102543.03;;;-0.51;100.00
49813;BME280;35706;52.100;5.056;2023-01-26T02:11:10;102541.25;;;-0.49;100.00
49813;BME280;35706;52.100;5.056;2023-01-26T02:12:13;102542.97;;;-0.48;100.00
49813;BME280;35706;52.100;5.056;2023-01-26T02:13:17;102537.72;;;-0.45;100.00
49813;BME280;35706;52.100;5.056;2023-01-26T02:14:18;102541.22;;;-0.46;100.00
49813;BME280;35706;52.100;5.056;2023-01-26T02:15:18;102542.78;;;-0.35;100.00
49813;BME280;35706;52.100;5.056;2023-01-26T02:16:19;102543.72;;;-0.43;100.00
49813;BME280;35706;52.100;5.056;2023-01-26T02:17:19;102544.69;;;-0.48;100.00
49813;BME280;35706;52.100;5.056;2023-01-26T02:18:19;102541.16;;;-0.43;100.00
49813;BME280;35706;52.100;5.056;2023-01-26T02:19:31;102543.69;;;-0.38;100.00
49813;BME280;35706;52.100;5.056;2023-01-26T02:20:44;102539.41;;;-0.41;100.00
49813;BME280;35706;52.100;5.056;2023-01-26T02:21:46;102539.13;;;-0.24;100.00
49813;BME280;35706;52.100;5.056;2023-01-26T02:24:27;102545.38;;;-0.37;100.00
49813;BME280;35706;52.100;5.056;2023-01-26T02:26:53;102543.81;;;-0.47;100.00
49813;BME280;35706;52.100;5.056;2023-01-26T02:27:53;102542.03;;;-0.42;100.00
49813;BME280;35706;52.100;5.056;2023-01-26T02:28:54;102542.03;;;-0.44;100.00
49813;BME280;35706;52.100;5.056;2023-01-26T02:29:55;102545.44;;;-0.40;100.00
49813;BME280;35706;52.100;5.056;2023-01-26T02:30:56;102539.50;;;-0.47;100.00
49813;BME280;35706;52.100;5.056;2023-01-26T02:31:56;102537.72;;;-0.45;100.00
49813;BME280;35706;52.100;5.056;2023-01-26T02:32:57;102540.28;;;-0.42;100.00
49813;BME280;35706;52.100;5.056;2023-01-26T02:33:57;102541.16;;;-0.43;100.00
49813;BME280;35706;52.100;5.056;2023-01-26T02:34:57;102536.53;;;-0.24;100.00
49813;BME280;35706;52.100;5.056;2023-01-26T02:35:58;102534.22;;;-0.39;100.00
49813;BME280;35706;52.100;5.056;2023-01-26T02:36:59;102532.53;;;-0.42;100.00
49813;BME280;35706;52.100;5.056;2023-01-26T02:37:59;102531.53;;;-0.33;100.00
49813;BME280;35706;52.100;5.056;2023-01-26T02:39:24;102541.75;;;-0.25;100.00
49813;BME280;35706;52.100;5.056;2023-01-26T02:40:55;102541.03;;;-0.33;100.00
49813;BME280;35706;52.100;5.056;2023-01-26T02:41:57;102543.72;;;-0.41;100.00
49813;BME280;35706;52.100;5.056;2023-01-26T02:43:16;102545.53;;;-0.46;100.00
49813;BME280;35706;52.100;5.056;2023-01-26T02:44:16;102541.22;;;-0.46;100.00
49813;BME280;35706;52.100;5.056;2023-01-26T02:45:17;102542.97;;;-0.48;100.00
49813;BME280;35706;52.100;5.056;2023-01-26T02:46:17;102541.13;;;-0.41;100.00
49813;BME280;35706;52.100;5.056;2023-01-26T02:47:20;102546.28;;;-0.39;100.00
49813;BME280;35706;52.100;5.056;2023-01-26T02:48:21;102541.13;;;-0.39;100.00
49813;BME280;35706;52.100;5.056;2023-01-26T02:49:40;102536.78;;;-0.37;100.00
49813;BME280;35706;52.100;5.056;2023-01-26T02:50:46;102535.97;;;-0.41;100.00
49813;BME280;35706;52.100;5.056;2023-01-26T02:51:46;102540.22;;;-0.37;100.00
49813;BME280;35706;52.100;5.056;2023-01-26T02:52:46;102538.47;;;-0.35;100.00
49813;BME280;35706;52.100;5.056;2023-01-26T02:53:47;102544.59;;;-0.42;100.00
49813;BME280;35706;52.100;5.056;2023-01-26T02:54:47;102550.63;;;-0.43;100.00
49813;BME280;35706;52.100;5.056;2023-01-26T02:56:06;102546.22;;;-0.36;100.00
49813;BME280;35706;52.100;5.056;2023-01-26T02:57:06;102544.53;;;-0.37;100.00
49813;BME280;35706;52.100;5.056;2023-01-26T02:58:07;102549.69;;;-0.36;100.00
49813;BME280;35706;52.100;5.056;2023-01-26T02:59:07;102546.31;;;-0.41;100.00
49813;BME280;35706;52.100;5.056;2023-01-26T03:00:13;102556.69;;;-0.44;100.00
49813;BME280;35706;52.100;5.056;2023-01-26T03:01:14;102554.03;;;-0.39;100.00
49813;BME280;35706;52.100;5.056;2023-01-26T03:02:14;102555.03;;;-0.48;100.00
49813;BME280;35706;52.100;5.056;2023-01-26T03:03:18;102550.72;;;-0.48;100.00
49813;BME280;35706;52.100;5.056;2023-01-26T03:04:20;102552.53;;;-0.54;100.00
49813;BME280;35706;52.100;5.056;2023-01-26T03:05:20;102550.81;;;-0.55;100.00
49813;BME280;35706;52.100;5.056;2023-01-26T03:06:20;102551.44;;;-0.39;100.00
49813;BME280;35706;52.100;5.056;2023-01-26T03:07:21;102549.88;;;-0.50;100.00
49813;BME280;35706;52.100;5.056;2023-01-26T03:08:21;102541.22;;;-0.47;100.00
49813;BME280;35706;52.100;5.056;2023-01-26T03:09:21;102555.81;;;-0.43;100.00
49813;BME280;35706;52.100;5.056;2023-01-26T03:10:21;102545.53;;;-0.46;100.00
49813;BME280;35706;52.100;5.056;2023-01-26T03:11:24;102549.88;;;-0.50;100.00
49813;BME280;35706;52.100;5.056;2023-01-26T03:12:41;102551.53;;;-0.46;100.00
49813;BME280;35706;52.100;5.056;2023-01-26T03:13:41;102549.69;;;-0.36;100.00
49813;BME280;35706;52.100;5.056;2023-01-26T03:14:41;102543.63;;;-0.36;100.00
49813;BME280;35706;52.100;5.056;2023-01-26T03:15:42;102549.69;;;-0.37;100.00
49813;BME280;35706;52.100;5.056;2023-01-26T03:16:42;102549.69;;;-0.37;100.00
49813;BME280;35706;52.100;5.056;2023-01-26T03:17:43;102549.78;;;-0.44;100.00
49813;BME280;35706;52.100;5.056;2023-01-26T03:18:43;102549.72;;;-0.41;100.00
49813;BME280;35706;52.100;5.056;2023-01-26T03:20:02;102549.72;;;-0.41;100.00
49813;BME280;35706;52.100;5.056;2023-01-26T03:21:22;102551.44;;;-0.39;100.00
49813;BME280;35706;52.100;5.056;2023-01-26T03:22:41;102541.94;;;-0.36;100.00
49813;BME280;35706;52.100;5.056;2023-01-26T03:24:00;102547.97;;;-0.38;100.00
49813;BME280;35706;52.100;5.056;2023-01-26T03:25:19;102539.41;;;-0.41;100.00
49813;BME280;35706;52.100;5.056;2023-01-26T03:26:39;102537.69;;;-0.42;100.00
49813;BME280;35706;52.100;5.056;2023-01-26T03:27:58;102535.06;;;-0.38;100.00
49813;BME280;35706;52.100;5.056;2023-01-26T03:28:58;102541.13;;;-0.41;100.00
49813;BME280;35706;52.100;5.056;2023-01-26T03:29:58;102537.66;;;-0.38;100.00
49813;BME280;35706;52.100;5.056;2023-01-26T03:30:58;102541.13;;;-0.41;100.00
49813;BME280;35706;52.100;5.056;2023-01-26T03:31:59;102547.16;;;-0.41;100.00
49813;BME280;35706;52.100;5.056;2023-01-26T03:32:59;102544.44;;;-0.31;100.00
49813;BME280;35706;52.100;5.056;2023-01-26T03:34:00;102535.88;;;-0.35;100.00
49813;BME280;35706;52.100;5.056;2023-01-26T03:35:00;102544.34;;;-0.25;100.00
49813;BME280;35706;52.100;5.056;2023-01-26T03:36:00;102537.44;;;-0.26;100.00
49813;BME280;35706;52.100;5.056;2023-01-26T03:37:01;102543.34;;;-0.18;100.00
49813;BME280;35706;52.100;5.056;2023-01-26T03:38:01;102539.00;;;-0.16;100.00
49813;BME280;35706;52.100;5.056;2023-01-26T03:39:01;102542.63;;;-0.28;100.00
49813;BME280;35706;52.100;5.056;2023-01-26T03:40:03;102535.78;;;-0.30;100.00
49813;BME280;35706;52.100;5.056;2023-01-26T03:41:22;102537.47;;;-0.28;100.00
49813;BME280;35706;52.100;5.056;2023-01-26T03:42:41;102549.44;;;-0.21;100.00
49813;BME280;35706;52.100;5.056;2023-01-26T03:44:00;102544.34;;;-0.25;100.00
49813;BME280;35706;52.100;5.056;2023-01-26T03:45:19;102550.38;;;-0.26;100.00
49813;BME280;35706;52.100;5.056;2023-01-26T03:46:38;102553.03;;;-0.29;100.00
49813;BME280;35706;52.100;5.056;2023-01-26T03:48:08;102552.19;;;-0.31;100.00
49813;BME280;35706;52.100;5.056;2023-01-26T03:49:27;102545.03;;;-0.15;100.00
49813;BME280;35706;52.100;5.056;2023-01-26T03:50:46;102543.47;;;-0.26;100.00
49813;BME280;35706;52.100;5.056;2023-01-26T03:52:05;102545.19;;;-0.23;100.00
49813;BME280;35706;52.100;5.056;2023-01-26T03:53:24;102539.13;;;-0.24;100.00
49813;BME280;35706;52.100;5.056;2023-01-26T03:54:43;102542.69;;;-0.31;100.00
49813;BME280;35706;52.100;5.056;2023-01-26T03:56:03;102539.19;;;-0.25;100.00
49813;BME280;35706;52.100;5.056;2023-01-26T03:57:23;102544.38;;;-0.30;100.00
49813;BME280;35706;52.100;5.056;2023-01-26T03:58:24;102549.53;;;-0.28;100.00
49813;BME280;35706;52.100;5.056;2023-01-26T03:59:24;102546.94;;;-0.27;100.00
49813;BME280;35706;52.100;5.056;2023-01-26T04:00:37;102548.59;;;-0.23;100.00
49813;BME280;35706;52.100;5.056;2023-01-26T04:01:39;102542.59;;;-0.23;100.00
49813;BME280;35706;52.100;5.056;2023-01-26T04:02:43;102543.47;;;-0.26;100.00
49813;BME280;35706;52.100;5.056;2023-01-26T04:04:02;102542.63;;;-0.26;100.00
49813;BME280;35706;52.100;5.056;2023-01-26T04:05:21;102537.41;;;-0.23;100.00
49813;BME280;35706;52.100;5.056;2023-01-26T04:06:42;102533.03;;;-0.18;100.00
49813;BME280;35706;52.100;5.056;2023-01-26T04:08:03;102534.88;;;-0.26;100.00
49813;BME280;35706;52.100;5.056;2023-01-26T04:09:22;102541.81;;;-0.30;100.00
49813;BME280;35706;52.100;5.056;2023-01-26T04:10:23;102543.47;;;-0.26;100.00
49813;BME280;35706;52.100;5.056;2023-01-26T04:11:23;102544.34;;;-0.25;100.00
49813;BME280;35706;52.100;5.056;2023-01-26T04:12:24;102546.84;;;-0.21;100.00
49813;BME280;35706;52.100;5.056;2023-01-26T04:13:24;102547.69;;;-0.18;100.00
49813;BME280;35706;52.100;5.056;2023-01-26T04:14:43;102552.69;;;-0.11;100.00
49813;BME280;35706;52.100;5.056;2023-01-26T04:16:03;102551.84;;;-0.11;100.00
49813;BME280;35706;52.100;5.056;2023-01-26T04:17:22;102550.25;;;-0.18;100.00
49813;BME280;35706;52.100;5.056;2023-01-26T04:18:41;102551.19;;;-0.24;100.00
49813;BME280;35706;52.100;5.056;2023-01-26T04:20:00;102547.69;;;-0.20;100.00
49813;BME280;35706;52.100;5.056;2023-01-26T04:21:19;102544.25;;;-0.21;100.00
49813;BME280;35706;52.100;5.056;2023-01-26T04:22:26;102546.66;;;-0.10;100.00
49813;BME280;35706;52.100;5.056;2023-01-26T04:23:26;102544.19;;;-0.16;100.00
49813;BME280;35706;52.100;5.056;2023-01-26T04:24:26;102542.50;;;-0.17;100.00
49813;BME280;35706;52.100;5.056;2023-01-26T04:25:26;102547.63;;;-0.15;100.00
49813;BME280;35706;52.100;5.056;2023-01-26T04:26:30;102551.13;;;-0.19;100.00
49813;BME280;35706;52.100;5.056;2023-01-26T04:27:35;102551.94;;;-0.16;100.00
49813;BME280;35706;52.100;5.056;2023-01-26T04:28:36;102547.59;;;-0.14;100.00
49813;BME280;35706;52.100;5.056;2023-01-26T04:29:37;102545.81;;;-0.10;100.00
49813;BME280;35706;52.100;5.056;2023-01-26T04:30:37;102553.50;;;-0.07;100.00
49813;BME280;35706;52.100;5.056;2023-01-26T04:31:39;102548.44;;;-0.12;100.00
49813;BME280;35706;52.100;5.056;2023-01-26T04:32:40;102549.34;;;-0.14;100.00
49813;BME280;35706;52.100;5.056;2023-01-26T04:33:41;102547.69;;;-0.20;100.00
49813;BME280;35706;52.100;5.056;2023-01-26T04:34:41;102554.59;;;-0.19;100.00
49813;BME280;35706;52.100;5.056;2023-01-26T04:35:41;102546.84;;;-0.19;100.00
49813;BME280;35706;52.100;5.056;2023-01-26T04:36:42;102545.94;;;-0.18;100.00
49813;BME280;35706;52.100;5.056;2023-01-26T04:37:42;102542.50;;;-0.17;100.00
49813;BME280;35706;52.100;5.056;2023-01-26T04:38:43;102540.78;;;-0.18;100.00
49813;BME280;35706;52.100;5.056;2023-01-26T04:39:43;102545.97;;;-0.19;100.00
49813;BME280;35706;52.100;5.056;2023-01-26T04:40:43;102537.38;;;-0.22;100.00
49813;BME280;35706;52.100;5.056;2023-01-26T04:41:44;102544.25;;;-0.19;100.00
49813;BME280;35706;52.100;5.056;2023-01-26T04:42:44;102540.72;;;-0.15;100.00
49813;BME280;35706;52.100;5.056;2023-01-26T04:43:44;102540.75;;;-0.16;100.00
49813;BME280;35706;52.100;5.056;2023-01-26T04:44:45;102550.16;;;-0.12;100.00
49813;BME280;35706;52.100;5.056;2023-01-26T04:45:59;102538.09;;;-0.12;100.00
49813;BME280;35706;52.100;5.056;2023-01-26T04:46:59;102542.44;;;-0.14;100.00
49813;BME280;35706;52.100;5.056;2023-01-26T04:47:59;102534.69;;;-0.15;100.00
49813;BME280;35706;52.100;5.056;2023-01-26T04:49:00;102533.78;;;-0.13;100.00
49813;BME280;35706;52.100;5.056;2023-01-26T04:50:00;102535.41;;;-0.07;100.00
49813;BME280;35706;52.100;5.056;2023-01-26T04:51:05;102528.50;;;-0.05;100.00
49813;BME280;35706;52.100;5.056;2023-01-26T04:52:06;102534.56;;;-0.06;100.00
49813;BME280;35706;52.100;5.056;2023-01-26T04:53:06;102528.50;;;-0.05;100.00
49813;BME280;35706;52.100;5.056;2023-01-26T04:54:07;102533.66;;;-0.04;100.00
49813;BME280;35706;52.100;5.056;2023-01-26T04:55:08;102531.06;;;-0.04;100.00
49813;BME280;35706;52.100;5.056;2023-01-26T04:56:23;102531.91;;;-0.03;100.00
49813;BME280;35706;52.100;5.056;2023-01-26T04:57:23;102524.97;;;-0.01;100.00
49813;BME280;35706;52.100;5.056;2023-01-26T04:58:24;102524.13;;;0.00;100.00
49813;BME280;35706;52.100;5.056;2023-01-26T04:59:24;102528.50;;;-0.05;100.00
49813;BME280;35706;52.100;5.056;2023-01-26T05:00:24;102525.09;;;-0.09;100.00
49813;BME280;35706;52.100;5.056;2023-01-26T05:01:25;102532.00;;;-0.08;100.00
49813;BME280;35706;52.100;5.056;2023-01-26T05:02:25;102526.72;;;-0.02;100.00
49813;BME280;35706;52.100;5.056;2023-01-26T05:03:26;102528.56;;;-0.08;100.00
49813;BME280;35706;52.100;5.056;2023-01-26T05:04:26;102526.81;;;-0.08;100.00
49813;BME280;35706;52.100;5.056;2023-01-26T05:05:26;102529.38;;;-0.06;100.00
49813;BME280;35706;52.100;5.056;2023-01-26T05:06:27;102528.47;;;-0.04;100.00
49813;BME280;35706;52.100;5.056;2023-01-26T05:07:27;102518.13;;;-0.04;100.00
49813;BME280;35706;52.100;5.056;2023-01-26T05:08:27;102519.81;;;-0.01;100.00
49813;BME280;35706;52.100;5.056;2023-01-26T05:09:28;102530.13;;;0.01;100.00
49813;BME280;35706;52.100;5.056;2023-01-26T05:10:28;102522.31;;;0.02;100.00
49813;BME280;35706;52.100;5.056;2023-01-26T05:11:29;102517.13;;;0.05;100.00
49813;BME280;35706;52.100;5.056;2023-01-26T05:12:29;102522.19;;;0.10;100.00
49813;BME280;35706;52.100;5.056;2023-01-26T05:13:32;102520.47;;;0.10;100.00
49813;BME280;35706;52.100;5.056;2023-01-26T05:14:34;102521.25;;;0.14;100.00
49813;BME280;35706;52.100;5.056;2023-01-26T05:15:35;102517.00;;;0.13;100.00
49813;BME280;35706;52.100;5.056;2023-01-26T05:16:35;102520.44;;;0.12;100.00
49813;BME280;35706;52.100;5.056;2023-01-26T05:17:36;102521.38;;;0.08;100.00
49813;BME280;35706;52.100;5.056;2023-01-26T05:18:36;102518.69;;;0.14;100.00
49813;BME280;35706;52.100;5.056;2023-01-26T05:19:36;102519.56;;;0.13;100.00
49813;BME280;35706;52.100;5.056;2023-01-26T05:20:38;102523.88;;;0.12;100.00
49813;BME280;35706;52.100;5.056;2023-01-26T05:21:38;102519.59;;;0.11;100.00
49813;BME280;35706;52.100;5.056;2023-01-26T05:22:39;102521.34;;;0.09;100.00
49813;BME280;35706;52.100;5.056;2023-01-26T05:23:39;102513.72;;;0.02;100.00
49813;BME280;35706;52.100;5.056;2023-01-26T05:24:39;102517.13;;;0.05;100.00
49813;BME280;35706;52.100;5.056;2023-01-26T05:25:40;102518.81;;;0.06;100.00
49813;BME280;35706;52.100;5.056;2023-01-26T05:26:40;102517.97;;;0.06;100.00
49813;BME280;35706;52.100;5.056;2023-01-26T05:27:40;102518.88;;;0.03;100.00
49813;BME280;35706;52.100;5.056;2023-01-26T05:28:41;102522.38;;;-0.01;100.00
49813;BME280;35706;52.100;5.056;2023-01-26T05:29:41;102528.31;;;0.04;100.00
49813;BME280;35706;52.100;5.056;2023-01-26T05:30:42;102523.13;;;0.06;100.00
49813;BME280;35706;52.100;5.056;2023-01-26T05:31:42;102526.53;;;0.09;100.00
49813;BME280;35706;52.100;5.056;2023-01-26T05:32:42;102533.38;;;0.12;100.00
49813;BME280;35706;52.100;5.056;2023-01-26T05:33:43;102527.34;;;0.13;100.00